Time;durP1;ratioP1;P1;durP2;ratioP2;P2;SDS_P1;SDS_P2;PMS_P1;PMS_P2;Temp;Humidity;BMP_temperature;BMP_pressure;BME280_temperature;BME280_humidity;BME280_pressure;Samples;Min_cycle;Max_cycle;Signal;HPM_P1;HPM_P2
2023/07/31 00:01:34;;;;;;;;;;;;;;;21.81;97.32;94828.19;5113461;28;2856;-58
2023/07/31 00:04:00;;;;;;;;;;;;;;;21.53;100.00;94830.81;5114904;28;952;-58
2023/07/31 00:06:26;;;;;;;;;;;;;;;21.51;100.00;94833.78;5114771;28;949;-58
2023/07/31 00:08:52;;;;;;;;;;;;;;;21.63;99.13;94841.94;5113306;28;1028;-58
2023/07/31 00:11:18;;;;;;;;;;;;;;;21.74;100.00;94840.25;5114646;28;2001;-58
2023/07/31 00:13:44;;;;;;;;;;;;;;;21.89;97.27;94843.31;5114569;28;1032;-58
2023/07/31 00:16:10;;;;;;;;;;;;;;;21.87;99.18;94828.31;5114388;28;1068;-58
2023/07/31 00:18:36;;;;;;;;;;;;;;;21.85;100.00;94836.69;5114337;28;1087;-58
2023/07/31 00:21:02;;;;;;;;;;;;;;;21.84;100.00;94832.34;5114267;28;1103;-58
2023/07/31 00:23:28;;;;;;;;;;;;;;;21.79;98.49;94829.50;5114428;28;1055;-58
2023/07/31 00:25:54;;;;;;;;;;;;;;;21.81;99.86;94827.38;5114581;28;1144;-58
2023/07/31 00:28:20;;;;;;;;;;;;;;;21.62;100.00;94837.56;5114034;28;1384;-58
2023/07/31 00:30:46;;;;;;;;;;;;;;;21.66;100.00;94846.06;5114224;28;1910;-58
2023/07/31 00:33:12;;;;;;;;;;;;;;;21.74;100.00;94848.44;5114145;28;913;-58
2023/07/31 00:35:38;;;;;;;;;;;;;;;21.81;100.00;94852.69;5114112;28;967;-58
2023/07/31 00:38:04;;;;;;;;;;;;;;;21.86;100.00;94851.97;5114090;28;1044;-58
2023/07/31 00:40:34;;;;;;;;;;;;;;;21.91;100.00;94852.09;5113959;28;1095;-58
2023/07/31 00:43:00;;;;;;;;;;;;;;;21.87;100.00;94842.72;5114198;28;1051;-58
2023/07/31 00:45:27;;;;;;;;;;;;;;;21.62;98.93;94835.66;5113950;28;971;-58
2023/07/31 00:47:53;;;;;;;;;;;;;;;21.80;99.68;94837.44;5113932;28;1022;-58
2023/07/31 00:50:19;;;;;;;;;;;;;;;21.89;98.08;94837.88;5110008;28;2543;-58
2023/07/31 00:52:45;;;;;;;;;;;;;;;21.92;97.27;94831.97;5093531;28;1902;-57
2023/07/31 00:55:11;;;;;;;;;;;;;;;21.80;97.13;94842.88;5093745;28;973;-58
2023/07/31 00:57:38;;;;;;;;;;;;;;;21.59;99.10;94843.50;5093813;28;957;-59
2023/07/31 01:00:05;;;;;;;;;;;;;;;21.56;98.00;94835.81;5093604;28;944;-58
2023/07/31 01:02:31;;;;;;;;;;;;;;;21.41;98.89;94822.66;5093693;28;1039;-58
2023/07/31 01:04:57;;;;;;;;;;;;;;;21.04;99.77;94829.13;5093685;28;1028;-58
2023/07/31 01:07:43;;;;;;;;;;;;;;;21.15;98.52;94827.50;5094840;28;997;-58
2023/07/31 01:10:18;;;;;;;;;;;;;;;21.36;97.20;94814.34;5097373;28;1549;-58
2023/07/31 01:12:45;;;;;;;;;;;;;;;21.26;97.31;94815.78;5098638;28;2499;-58
2023/07/31 01:15:11;;;;;;;;;;;;;;;21.45;96.54;94819.22;5097538;28;1051;-58
2023/07/31 01:17:38;;;;;;;;;;;;;;;21.55;94.91;94817.81;5097801;28;1005;-58
2023/07/31 01:20:07;;;;;;;;;;;;;;;21.48;95.09;94809.78;5097695;28;917;-58
2023/07/31 01:22:58;;;;;;;;;;;;;;;21.26;96.86;94820.38;5097311;28;1138;-58
2023/07/31 01:25:53;;;;;;;;;;;;;;;21.13;96.06;94815.19;5097459;28;1203;-58
2023/07/31 01:28:22;;;;;;;;;;;;;;;21.26;95.26;94817.66;5085178;28;2634;-58
2023/07/31 01:30:48;;;;;;;;;;;;;;;21.45;93.90;94819.22;5116184;28;2431;-58
2023/07/31 01:33:17;;;;;;;;;;;;;;;21.22;95.38;94817.31;5117500;28;1032;-58
2023/07/31 01:35:44;;;;;;;;;;;;;;;20.83;97.91;94825.06;5117799;28;1031;-58
2023/07/31 01:38:10;;;;;;;;;;;;;;;20.70;97.88;94821.72;5117362;27;1059;-58
2023/07/31 01:40:36;;;;;;;;;;;;;;;20.80;97.70;94820.09;5116565;28;1039;-58
2023/07/31 01:43:03;;;;;;;;;;;;;;;20.98;96.44;94835.50;5117716;28;1032;-58
2023/07/31 01:45:28;;;;;;;;;;;;;;;21.04;96.43;94839.19;5117320;28;1035;-58
2023/07/31 01:47:54;;;;;;;;;;;;;;;21.07;95.41;94838.69;5117305;28;1037;-58
2023/07/31 01:50:20;;;;;;;;;;;;;;;20.89;96.53;94842.34;5117003;28;1099;-58
2023/07/31 01:52:46;;;;;;;;;;;;;;;20.81;98.79;94857.09;5117110;28;1906;-58
2023/07/31 01:55:12;;;;;;;;;;;;;;;20.79;98.85;94856.50;5112226;28;2925;-58
2023/07/31 01:57:38;;;;;;;;;;;;;;;20.83;99.08;94859.53;5097026;28;1000;-58
2023/07/31 02:00:05;;;;;;;;;;;;;;;20.78;99.98;94867.59;5096875;28;1029;-58
2023/07/31 02:02:31;;;;;;;;;;;;;;;20.77;99.72;94864.03;5096693;28;987;-58
2023/07/31 02:04:57;;;;;;;;;;;;;;;20.85;99.18;94871.84;5096607;28;1044;-59
2023/07/31 02:07:23;;;;;;;;;;;;;;;20.89;100.00;94876.81;5096475;28;1052;-59
2023/07/31 02:09:49;;;;;;;;;;;;;;;20.93;99.76;94878.84;5096550;28;1091;-59
2023/07/31 02:12:15;;;;;;;;;;;;;;;21.01;99.95;94878.50;5096315;28;1913;-59
2023/07/31 02:14:41;;;;;;;;;;;;;;;21.13;99.38;94888.56;5096710;28;1003;-58
2023/07/31 02:17:07;;;;;;;;;;;;;;;21.17;98.90;94889.75;5096698;28;1011;-59
2023/07/31 02:19:33;;;;;;;;;;;;;;;21.10;98.92;94880.91;5095543;28;1015;-59
2023/07/31 02:21:59;;;;;;;;;;;;;;;21.05;100.00;94879.69;5096522;28;929;-59
2023/07/31 02:24:25;;;;;;;;;;;;;;;21.06;98.77;94875.09;5096398;28;940;-59
2023/07/31 02:26:51;;;;;;;;;;;;;;;21.22;96.30;94866.25;5096200;28;1095;-59
2023/07/31 02:29:17;;;;;;;;;;;;;;;21.18;96.72;94864.25;5104529;28;1197;-59
2023/07/31 02:31:42;;;;;;;;;;;;;;;21.03;97.90;94862.78;5116414;28;1933;-59
2023/07/31 02:34:08;;;;;;;;;;;;;;;20.72;99.64;94850.31;5116754;28;952;-59
2023/07/31 02:36:34;;;;;;;;;;;;;;;20.62;100.00;94859.03;5116319;28;1007;-58
2023/07/31 02:39:00;;;;;;;;;;;;;;;20.62;100.00;94852.75;5116359;28;1011;-58
2023/07/31 02:41:26;;;;;;;;;;;;;;;20.61;100.00;94851.94;5116283;28;1028;-58
2023/07/31 02:43:52;;;;;;;;;;;;;;;20.39;100.00;94848.03;5116230;28;1228;-58
2023/07/31 02:46:18;;;;;;;;;;;;;;;20.27;100.00;94845.28;5116443;28;968;-60
2023/07/31 02:48:45;;;;;;;;;;;;;;;20.24;100.00;94845.72;5116283;28;1007;-60
2023/07/31 02:51:11;;;;;;;;;;;;;;;20.17;100.00;94843.09;5115789;28;1975;-60
2023/07/31 02:53:37;;;;;;;;;;;;;;;20.21;100.00;94846.19;5116059;28;1127;-60
2023/07/31 02:56:03;;;;;;;;;;;;;;;20.42;100.00;94853.00;5116034;28;1036;-60
2023/07/31 02:58:29;;;;;;;;;;;;;;;20.48;100.00;94854.81;5115845;28;1043;-59
2023/07/31 03:00:54;;;;;;;;;;;;;;;20.43;100.00;94852.78;5116072;28;992;-60
2023/07/31 03:03:20;;;;;;;;;;;;;;;20.52;100.00;94853.28;5116176;28;1031;-61
2023/07/31 03:05:46;;;;;;;;;;;;;;;20.62;100.00;94845.44;5115913;28;968;-61
2023/07/31 03:08:12;;;;;;;;;;;;;;;20.49;100.00;94856.47;5115700;28;987;-61
2023/07/31 03:10:38;;;;;;;;;;;;;;;20.15;100.00;94858.78;5115606;28;1906;-60
2023/07/31 03:13:04;;;;;;;;;;;;;;;20.06;100.00;94860.97;5115690;28;1032;-60
2023/07/31 03:15:30;;;;;;;;;;;;;;;20.33;100.00;94863.34;5115898;28;1035;-61
2023/07/31 03:17:56;;;;;;;;;;;;;;;20.41;100.00;94867.63;5115841;28;980;-61
2023/07/31 03:20:22;;;;;;;;;;;;;;;20.49;100.00;94864.63;5115490;28;1048;-61
2023/07/31 03:22:48;;;;;;;;;;;;;;;20.56;100.00;94868.06;5115708;28;1011;-61
2023/07/31 03:25:14;;;;;;;;;;;;;;;20.20;100.00;94863.53;5115602;28;1031;-58
2023/07/31 03:27:40;;;;;;;;;;;;;;;20.05;100.00;94870.19;5115763;28;1051;-58
2023/07/31 03:30:06;;;;;;;;;;;;;;;19.99;100.00;94881.94;5115248;27;1169;-59
2023/07/31 03:32:32;;;;;;;;;;;;;;;19.99;100.00;94900.09;5114565;28;1918;-58
2023/07/31 03:34:58;;;;;;;;;;;;;;;19.96;100.00;94895.16;5115493;28;1031;-58
2023/07/31 03:37:24;;;;;;;;;;;;;;;19.98;100.00;94898.47;5115031;28;996;-58
2023/07/31 03:39:50;;;;;;;;;;;;;;;20.06;100.00;94898.97;5115106;28;1052;-59
2023/07/31 03:42:16;;;;;;;;;;;;;;;20.19;100.00;94900.69;5112917;28;2531;-59
2023/07/31 03:44:42;;;;;;;;;;;;;;;20.33;100.00;94898.66;5115362;28;1055;-58
2023/07/31 03:47:08;;;;;;;;;;;;;;;20.36;100.00;94900.91;5114166;28;2229;-58
2023/07/31 03:49:34;;;;;;;;;;;;;;;20.32;100.00;94896.16;5114043;28;2811;-58
2023/07/31 03:52:00;;;;;;;;;;;;;;;20.29;100.00;94902.88;5114665;28;1906;-58
2023/07/31 03:54:25;;;;;;;;;;;;;;;20.22;100.00;94893.97;5114768;28;1076;-58
2023/07/31 03:56:51;;;;;;;;;;;;;;;20.02;100.00;94902.38;5114657;28;1036;-59
2023/07/31 03:59:17;;;;;;;;;;;;;;;20.07;100.00;94906.06;5114660;28;1075;-58
2023/07/31 04:01:43;;;;;;;;;;;;;;;20.07;100.00;94911.50;5114873;28;991;-58
2023/07/31 04:04:09;;;;;;;;;;;;;;;20.38;99.66;94906.94;5114885;28;1055;-58
2023/07/31 04:06:35;;;;;;;;;;;;;;;20.44;100.00;94916.88;5114607;28;1060;-59
2023/07/31 04:09:02;;;;;;;;;;;;;;;20.50;100.00;94908.88;5114823;28;971;-59
2023/07/31 04:11:28;;;;;;;;;;;;;;;20.17;100.00;94923.72;5114639;28;1909;-58
2023/07/31 04:13:54;;;;;;;;;;;;;;;20.01;100.00;94911.56;5114449;28;1124;-58
2023/07/31 04:16:20;;;;;;;;;;;;;;;20.03;100.00;94920.28;5114361;28;1045;-57
2023/07/31 04:18:45;;;;;;;;;;;;;;;20.30;100.00;94920.84;5114405;28;1044;-58
2023/07/31 04:21:11;;;;;;;;;;;;;;;20.43;100.00;94925.25;5114271;28;1907;-59
2023/07/31 04:23:37;;;;;;;;;;;;;;;20.49;100.00;94924.38;5114236;28;1052;-59
2023/07/31 04:26:03;;;;;;;;;;;;;;;20.49;100.00;94932.50;5114327;28;1016;-59
2023/07/31 04:28:31;;;;;;;;;;;;;;;20.46;100.00;94930.25;5114075;28;1185;-59
2023/07/31 04:30:57;;;;;;;;;;;;;;;20.55;100.00;94922.63;5114439;28;1996;-59
2023/07/31 04:33:23;;;;;;;;;;;;;;;20.56;100.00;94922.38;5114385;28;969;-58
2023/07/31 04:35:52;;;;;;;;;;;;;;;20.71;100.00;94930.16;5114147;28;1047;-58
2023/07/31 04:38:19;;;;;;;;;;;;;;;20.70;100.00;94933.94;5114051;28;1044;-58
2023/07/31 04:40:45;;;;;;;;;;;;;;;20.76;100.00;94929.47;5114286;28;1127;-59
2023/07/31 04:43:11;;;;;;;;;;;;;;;20.90;100.00;94935.53;5113901;28;1230;-58
2023/07/31 04:47:22;;;;;;;;;;;;;;;21.30;100.00;94929.50;5117687;27;1306209;-58
2023/07/31 04:53:09;;;;;;;;;;;;;;;21.47;98.30;94922.34;5152707;27;756;-58
2023/07/31 04:55:35;;;;;;;;;;;;;;;21.38;96.94;94918.28;5152664;27;971;-57
2023/07/31 04:58:01;;;;;;;;;;;;;;;21.40;100.00;94924.34;5152372;27;1044;-58
2023/07/31 05:00:27;;;;;;;;;;;;;;;21.22;97.16;94923.34;5152250;27;1039;-58
2023/07/31 05:02:53;;;;;;;;;;;;;;;21.17;100.00;94919.66;5152209;27;1032;-58
2023/07/31 05:05:19;;;;;;;;;;;;;;;21.14;99.58;94929.13;5152065;27;1905;-57
2023/07/31 05:07:45;;;;;;;;;;;;;;;21.24;100.00;94925.81;5152135;27;1279;-57
2023/07/31 05:10:11;;;;;;;;;;;;;;;21.29;98.75;94927.88;5152018;27;1020;-58
2023/07/31 05:12:37;;;;;;;;;;;;;;;21.36;98.94;94923.13;5152034;27;1040;-57
2023/07/31 05:15:03;;;;;;;;;;;;;;;21.41;97.58;94931.41;5152328;27;992;-57
2023/07/31 05:17:29;;;;;;;;;;;;;;;21.55;98.19;94927.47;5133925;27;947;-57
2023/07/31 05:19:55;;;;;;;;;;;;;;;21.63;97.30;94929.00;5151893;27;1012;-57
2023/07/31 05:22:21;;;;;;;;;;;;;;;21.85;94.93;94926.50;5151877;27;1542;-57
2023/07/31 05:24:47;;;;;;;;;;;;;;;22.00;95.14;94931.47;5152122;27;1008;-57
2023/07/31 05:27:14;;;;;;;;;;;;;;;22.07;96.33;94934.09;5151926;27;1996;-58
2023/07/31 05:29:40;;;;;;;;;;;;;;;21.99;96.15;94943.44;5151680;27;1153;-58
2023/07/31 05:32:06;;;;;;;;;;;;;;;22.04;97.81;94935.38;5151718;27;1506;-58
2023/07/31 05:34:32;;;;;;;;;;;;;;;22.14;99.23;94927.44;5151514;27;1963;-57
2023/07/31 05:36:58;;;;;;;;;;;;;;;22.35;94.70;94931.47;5151603;27;1079;-57
2023/07/31 05:39:24;;;;;;;;;;;;;;;22.50;92.77;94925.50;5151673;27;1044;-58
2023/07/31 05:41:50;;;;;;;;;;;;;;;22.74;91.90;94928.16;5151672;27;965;-58
2023/07/31 05:44:16;;;;;;;;;;;;;;;22.80;92.36;94927.16;5151726;27;1003;-58
2023/07/31 05:46:42;;;;;;;;;;;;;;;23.04;90.01;94936.13;5151392;27;1913;-58
2023/07/31 05:49:08;;;;;;;;;;;;;;;23.38;87.72;94930.72;5151372;27;961;-58
2023/07/31 05:51:34;;;;;;;;;;;;;;;23.45;88.97;94928.66;5151570;27;1308;-58
2023/07/31 05:54:00;;;;;;;;;;;;;;;23.41;91.51;94938.41;5151270;27;1570;-58
2023/07/31 05:56:27;;;;;;;;;;;;;;;23.39;91.12;94932.34;5151448;27;1283;-58
2023/07/31 05:58:53;;;;;;;;;;;;;;;23.59;89.91;94929.16;5136898;27;953;-58
2023/07/31 06:01:21;;;;;;;;;;;;;;;23.59;89.43;94940.88;5137350;27;965;-58
2023/07/31 06:03:47;;;;;;;;;;;;;;;23.71;90.71;94932.63;5137237;27;1052;-58
2023/07/31 06:06:13;;;;;;;;;;;;;;;23.70;88.82;94935.63;5137112;27;1982;-58
2023/07/31 06:08:40;;;;;;;;;;;;;;;23.47;85.70;94939.34;5137381;27;949;-58
2023/07/31 06:11:07;;;;;;;;;;;;;;;23.67;89.15;94947.84;5137090;27;1075;-58
2023/07/31 06:13:33;;;;;;;;;;;;;;;23.82;89.02;94938.28;5137379;27;968;-58
2023/07/31 06:15:59;;;;;;;;;;;;;;;23.95;87.75;94941.47;5137152;27;1122;-58
2023/07/31 06:18:25;;;;;;;;;;;;;;;24.05;86.23;94932.59;5136901;27;976;-58
2023/07/31 06:20:53;;;;;;;;;;;;;;;24.16;83.93;94922.66;5136968;27;1028;-58
2023/07/31 06:23:20;;;;;;;;;;;;;;;24.24;85.81;94924.97;5137094;27;995;-58
2023/07/31 06:25:46;;;;;;;;;;;;;;;24.33;82.28;94926.19;5136490;27;2161;-58
2023/07/31 06:28:12;;;;;;;;;;;;;;;24.32;81.10;94930.00;5136123;27;2755;-59
2023/07/31 06:30:38;;;;;;;;;;;;;;;24.51;81.12;94935.13;5136970;27;1169;-58
2023/07/31 06:33:04;;;;;;;;;;;;;;;24.91;80.75;94936.78;5136697;27;977;-58
2023/07/31 06:35:30;;;;;;;;;;;;;;;24.84;80.00;94936.94;5136873;27;1039;-57
2023/07/31 06:37:56;;;;;;;;;;;;;;;25.18;76.00;94933.22;5136636;27;1035;-57
2023/07/31 06:40:22;;;;;;;;;;;;;;;25.47;78.70;94931.06;5136653;27;1051;-58
2023/07/31 06:42:48;;;;;;;;;;;;;;;25.24;75.85;94933.03;5136508;27;1032;-58
2023/07/31 06:45:14;;;;;;;;;;;;;;;25.21;77.05;94929.94;5136697;27;1910;-58
2023/07/31 06:47:40;;;;;;;;;;;;;;;25.50;76.13;94927.81;5136160;27;1245;-58
2023/07/31 06:50:07;;;;;;;;;;;;;;;25.86;76.37;94928.91;5136766;27;969;-58
2023/07/31 06:52:33;;;;;;;;;;;;;;;26.06;76.73;94927.44;5136492;27;1020;-58
2023/07/31 06:55:20;;;;;;;;;;;;;;;26.11;74.29;94924.72;5136625;27;971;-58
2023/07/31 06:57:46;;;;;;;;;;;;;;;26.24;73.22;94928.94;5136406;27;971;-58
2023/07/31 07:00:13;;;;;;;;;;;;;;;26.38;72.55;94929.28;5136150;27;971;-58
2023/07/31 07:02:39;;;;;;;;;;;;;;;26.34;70.95;94928.16;5136524;27;1026;-58
2023/07/31 07:05:06;;;;;;;;;;;;;;;26.49;67.79;94928.22;5136345;27;1906;-58
2023/07/31 07:07:32;;;;;;;;;;;;;;;26.51;65.65;94927.97;5136021;27;1102;-58
2023/07/31 07:10:01;;;;;;;;;;;;;;;26.63;65.61;94925.84;5135323;27;1020;-58
2023/07/31 07:12:29;;;;;;;;;;;;;;;26.30;70.61;94923.19;5135945;27;1073;-57
2023/07/31 07:14:55;;;;;;;;;;;;;;;26.51;65.98;94928.78;5136144;27;1190;-58
2023/07/31 07:17:21;;;;;;;;;;;;;;;26.68;62.51;94921.22;5135711;27;1577;-58
2023/07/31 07:19:48;;;;;;;;;;;;;;;26.75;66.34;94925.63;5134594;27;2857;-57
2023/07/31 07:22:14;;;;;;;;;;;;;;;27.02;66.40;94920.78;5135810;27;1007;-58
2023/07/31 07:24:40;;;;;;;;;;;;;;;27.01;65.45;94921.03;5135608;27;1040;-58
2023/07/31 07:27:06;;;;;;;;;;;;;;;27.13;64.47;94923.53;5135877;27;1980;-58
2023/07/31 07:29:33;;;;;;;;;;;;;;;27.16;65.35;94920.25;5135692;27;1220;-58
2023/07/31 07:31:59;;;;;;;;;;;;;;;27.24;62.47;94923.31;5135862;27;941;-58
2023/07/31 07:34:26;;;;;;;;;;;;;;;27.25;63.46;94916.75;5134065;27;2716;-58
2023/07/31 07:36:52;;;;;;;;;;;;;;;26.93;64.99;94916.91;5134984;27;977;-58
2023/07/31 07:39:18;;;;;;;;;;;;;;;26.11;65.84;94913.78;5135768;27;1011;-58
2023/07/31 07:41:44;;;;;;;;;;;;;;;25.77;69.64;94907.75;5135631;27;1055;-59
2023/07/31 07:44:10;;;;;;;;;;;;;;;25.44;69.59;94916.00;5135084;27;951;-58
2023/07/31 07:46:36;;;;;;;;;;;;;;;25.36;70.01;94924.66;5135145;27;1997;-58
2023/07/31 07:49:02;;;;;;;;;;;;;;;25.44;70.13;94931.56;5135138;27;1098;-58
2023/07/31 07:51:30;;;;;;;;;;;;;;;25.40;73.19;94936.75;5135006;27;1043;-58
2023/07/31 07:53:56;;;;;;;;;;;;;;;25.24;71.54;94935.75;5135331;27;1025;-58
2023/07/31 07:56:22;;;;;;;;;;;;;;;25.36;73.45;94937.53;5135178;27;995;-59
2023/07/31 07:58:49;;;;;;;;;;;;;;;25.26;67.97;94941.81;5135074;27;1051;-59
2023/07/31 08:01:15;;;;;;;;;;;;;;;25.19;66.11;94937.59;5135031;27;1035;-58
2023/07/31 08:03:42;;;;;;;;;;;;;;;25.66;67.92;94942.44;5134844;27;1103;-58
2023/07/31 08:06:09;;;;;;;;;;;;;;;26.30;62.39;94939.63;5134999;27;1909;-58
2023/07/31 08:08:35;;;;;;;;;;;;;;;26.82;60.68;94942.66;5134883;27;937;-58
2023/07/31 08:11:01;;;;;;;;;;;;;;;26.75;58.85;94942.91;5134656;27;1861;-59
2023/07/31 08:13:27;;;;;;;;;;;;;;;26.34;62.36;94947.34;5134553;27;1045;-59
2023/07/31 08:15:53;;;;;;;;;;;;;;;26.19;61.32;94937.94;5134606;27;1095;-58
2023/07/31 08:18:19;;;;;;;;;;;;;;;26.04;62.16;94926.88;5134677;27;999;-58
2023/07/31 08:20:45;;;;;;;;;;;;;;;25.93;62.37;94923.22;5134617;27;985;-58
2023/07/31 08:23:11;;;;;;;;;;;;;;;25.86;63.67;94931.66;5134486;27;1131;-58
2023/07/31 08:25:37;;;;;;;;;;;;;;;25.67;61.23;94930.41;5134365;27;1913;-58
2023/07/31 08:28:04;;;;;;;;;;;;;;;25.92;61.02;94931.72;5134411;27;1051;-59
2023/07/31 08:30:30;;;;;;;;;;;;;;;26.53;60.66;94929.34;5134482;27;1168;-58
2023/07/31 08:32:56;;;;;;;;;;;;;;;27.08;59.77;94932.59;5134585;27;1060;-59
2023/07/31 08:35:22;;;;;;;;;;;;;;;27.10;62.17;94935.06;5134371;27;1029;-58
2023/07/31 08:37:48;;;;;;;;;;;;;;;27.35;56.72;94934.31;5134623;27;978;-58
2023/07/31 08:40:14;;;;;;;;;;;;;;;27.61;55.15;94940.69;5115998;28;1047;-58
2023/07/31 08:42:44;;;;;;;;;;;;;;;27.81;54.98;94934.34;5134309;27;1040;-59
2023/07/31 08:45:13;;;;;;;;;;;;;;;27.79;52.83;94931.06;5134402;28;1909;-59
2023/07/31 08:47:39;;;;;;;;;;;;;;;28.01;53.18;94928.88;5134111;28;1190;-59
2023/07/31 08:50:05;;;;;;;;;;;;;;;28.14;52.02;94924.75;5133086;28;2508;-58
2023/07/31 08:52:31;;;;;;;;;;;;;;;28.16;53.83;94928.03;5115960;28;976;-59
2023/07/31 08:54:57;;;;;;;;;;;;;;;27.72;52.54;94939.59;5134459;28;1053;-59
2023/07/31 08:57:24;;;;;;;;;;;;;;;27.53;56.64;94938.50;5132872;28;2499;-59
2023/07/31 08:59:50;;;;;;;;;;;;;;;27.08;56.80;94927.09;5134313;28;1058;-59
2023/07/31 09:02:17;;;;;;;;;;;;;;;26.80;54.19;94929.22;5133997;28;1048;-58
2023/07/31 09:04:43;;;;;;;;;;;;;;;27.24;54.32;94936.19;5134381;28;995;-59
2023/07/31 09:07:13;;;;;;;;;;;;;;;27.67;54.96;94936.00;5134005;28;1902;-58
2023/07/31 09:09:38;;;;;;;;;;;;;;;28.06;52.75;94927.22;5115771;28;1114;-58
2023/07/31 09:12:05;;;;;;;;;;;;;;;28.16;51.25;94929.97;5134247;28;948;-58
2023/07/31 09:14:31;;;;;;;;;;;;;;;28.29;50.27;94923.09;5134158;28;1036;-58
2023/07/31 09:16:59;;;;;;;;;;;;;;;28.38;50.11;94919.47;5110950;28;2544;-58
2023/07/31 09:19:37;;;;;;;;;;;;;;;28.29;48.46;94915.66;5113326;28;1036;-58
2023/07/31 09:22:03;;;;;;;;;;;;;;;28.19;49.18;94927.50;5113504;28;1048;-58
2023/07/31 09:24:31;;;;;;;;;;;;;;;28.18;49.51;94922.28;5113195;28;1020;-58
2023/07/31 09:26:58;;;;;;;;;;;;;;;28.21;49.25;94919.78;5113583;28;1906;-58
2023/07/31 09:29:26;;;;;;;;;;;;;;;28.27;47.88;94926.09;5123038;28;1162;-58
2023/07/31 09:31:52;;;;;;;;;;;;;;;27.69;51.77;94914.59;5134023;27;1056;-58
2023/07/31 09:34:18;;;;;;;;;;;;;;;27.41;50.24;94914.00;5136206;27;2547;-58
2023/07/31 09:36:53;;;;;;;;;;;;;;;27.31;51.39;94909.34;5137649;27;1036;-58
2023/07/31 09:39:19;;;;;;;;;;;;;;;27.22;49.76;94910.94;5137885;27;1002;-58
2023/07/31 09:41:53;;;;;;;;;;;;;;;27.41;49.74;94914.00;5137929;27;973;-58
2023/07/31 09:44:20;;;;;;;;;;;;;;;27.82;48.57;94917.59;5137793;27;1202;-58
2023/07/31 09:46:46;;;;;;;;;;;;;;;28.07;48.61;94915.97;5137245;27;1910;-58
2023/07/31 09:49:13;;;;;;;;;;;;;;;28.30;49.12;94897.22;5137271;27;1027;-58
2023/07/31 09:51:40;;;;;;;;;;;;;;;28.54;47.06;94903.78;5137651;27;1055;-57
2023/07/31 09:54:10;;;;;;;;;;;;;;;28.76;45.58;94905.34;5137616;27;917;-58
2023/07/31 09:56:37;;;;;;;;;;;;;;;28.73;47.94;94895.72;5137474;27;1015;-57
2023/07/31 09:59:04;;;;;;;;;;;;;;;28.74;47.08;94894.63;5137253;27;1052;-58
2023/07/31 10:01:30;;;;;;;;;;;;;;;28.57;46.41;94894.97;5137194;27;976;-58
2023/07/31 10:03:57;;;;;;;;;;;;;;;27.95;46.54;94905.25;5137434;27;952;-58
2023/07/31 10:06:24;;;;;;;;;;;;;;;27.54;47.80;94905.25;5137219;27;1985;-57
2023/07/31 10:08:51;;;;;;;;;;;;;;;27.36;47.64;94903.06;5132081;27;2582;-58
2023/07/31 10:11:17;;;;;;;;;;;;;;;27.68;49.53;94894.56;5116649;28;970;-58
2023/07/31 10:13:43;;;;;;;;;;;;;;;28.17;47.91;94893.97;5116430;28;1087;-58
2023/07/31 10:16:10;;;;;;;;;;;;;;;28.56;45.42;94887.81;5116604;28;1029;-58
2023/07/31 10:18:37;;;;;;;;;;;;;;;28.73;44.98;94883.91;5116622;28;977;-58
2023/07/31 10:21:03;;;;;;;;;;;;;;;28.26;44.75;94887.91;5116915;27;2531;-57
2023/07/31 10:23:29;;;;;;;;;;;;;;;27.76;46.29;94882.19;5136916;27;1043;-57
2023/07/31 10:25:56;;;;;;;;;;;;;;;27.52;46.91;94879.16;5136679;27;1988;-58
2023/07/31 10:28:24;;;;;;;;;;;;;;;27.60;49.32;94873.97;5135783;27;1209;-58
2023/07/31 10:30:51;;;;;;;;;;;;;;;28.10;47.53;94881.63;5116247;28;1006;-57
2023/07/31 10:33:18;;;;;;;;;;;;;;;28.24;46.89;94880.72;5115956;28;1031;-57
2023/07/31 10:35:44;;;;;;;;;;;;;;;28.37;45.85;94887.56;5127207;27;2480;-57
2023/07/31 10:38:11;;;;;;;;;;;;;;;28.59;44.96;94884.50;5136408;27;920;-57
2023/07/31 10:40:37;;;;;;;;;;;;;;;28.74;43.97;94885.53;5136824;27;1230;-58
2023/07/31 10:43:04;;;;;;;;;;;;;;;28.76;44.96;94878.66;5136322;27;1043;-58
2023/07/31 10:45:30;;;;;;;;;;;;;;;28.72;43.72;94885.84;5136331;27;2010;-58
2023/07/31 10:48:00;;;;;;;;;;;;;;;28.46;45.25;94873.25;5136063;27;1079;-58
2023/07/31 10:50:27;;;;;;;;;;;;;;;28.39;45.42;94885.38;5136478;27;1029;-58
2023/07/31 10:52:54;;;;;;;;;;;;;;;28.28;46.64;94877.44;5136528;27;1087;-58
2023/07/31 10:55:38;;;;;;;;;;;;;;;28.33;47.30;94869.19;5135888;27;1028;-57
2023/07/31 10:58:08;;;;;;;;;;;;;;;28.31;47.62;94871.41;5136166;27;964;-58
2023/07/31 11:00:36;;;;;;;;;;;;;;;28.14;48.34;94867.03;5135941;27;854;-57
2023/07/31 11:03:03;;;;;;;;;;;;;;;27.94;49.09;94872.56;5136307;27;1015;-57
2023/07/31 11:05:41;;;;;;;;;;;;;;;27.74;46.70;94874.22;5129585;27;2542;-58
2023/07/31 11:08:26;;;;;;;;;;;;;;;27.63;47.02;94865.16;5094984;28;1072;-58
2023/07/31 11:11:02;;;;;;;;;;;;;;;27.50;45.00;94862.97;5094996;28;1044;-58
2023/07/31 11:13:31;;;;;;;;;;;;;;;27.48;45.92;94859.66;5094817;28;969;-57
2023/07/31 11:15:57;;;;;;;;;;;;;;;27.83;45.35;94863.47;5095140;28;1055;-58
2023/07/31 11:18:26;;;;;;;;;;;;;;;28.37;44.30;94854.59;5094965;28;985;-57
2023/07/31 11:20:51;;;;;;;;;;;;;;;28.49;42.33;94857.00;5095162;28;977;-57
2023/07/31 11:23:18;;;;;;;;;;;;;;;28.63;44.72;94851.78;5094673;28;1088;-57
2023/07/31 11:25:45;;;;;;;;;;;;;;;28.94;43.83;94857.91;5094895;28;1914;-57
2023/07/31 11:28:15;;;;;;;;;;;;;;;28.79;44.61;94849.75;5117726;27;2993;-57
2023/07/31 11:30:41;;;;;;;;;;;;;;;28.55;43.52;94844.09;5115128;28;1157;-57
2023/07/31 11:33:08;;;;;;;;;;;;;;;28.55;44.96;94849.59;5115296;28;1028;-57
2023/07/31 11:35:41;;;;;;;;;;;;;;;28.42;43.84;94840.81;5115004;28;1310;-57
2023/07/31 11:38:08;;;;;;;;;;;;;;;28.23;42.26;94848.88;5114814;28;977;-57
2023/07/31 11:40:43;;;;;;;;;;;;;;;28.04;43.18;94845.09;5115010;28;1061;-57
2023/07/31 11:43:11;;;;;;;;;;;;;;;28.04;43.41;94840.41;5114773;28;1040;-58
2023/07/31 11:45:39;;;;;;;;;;;;;;;27.82;44.01;94837.94;5114988;28;1994;-60
2023/07/31 11:48:05;;;;;;;;;;;;;;;27.71;46.24;94844.56;5132649;27;1226;-59
2023/07/31 11:50:33;;;;;;;;;;;;;;;27.70;45.30;94836.56;5135097;27;1048;-59
2023/07/31 11:53:00;;;;;;;;;;;;;;;27.81;47.09;94841.81;5135478;27;1253;-59
2023/07/31 11:55:26;;;;;;;;;;;;;;;28.06;45.75;94831.03;5134752;27;961;-59
2023/07/31 11:57:53;;;;;;;;;;;;;;;28.11;45.67;94829.09;5134000;27;2427;-58
2023/07/31 12:00:19;;;;;;;;;;;;;;;28.16;46.39;94831.03;5135017;27;1032;-59
2023/07/31 12:02:46;;;;;;;;;;;;;;;28.24;45.04;94828.50;5135094;27;1001;-59
2023/07/31 12:05:12;;;;;;;;;;;;;;;28.41;45.41;94828.19;5134813;27;1059;-58
2023/07/31 12:07:49;;;;;;;;;;;;;;;28.60;45.75;94822.91;5134818;27;1047;-58
2023/07/31 12:10:24;;;;;;;;;;;;;;;28.77;43.04;94829.97;5116929;27;1011;-59
2023/07/31 12:13:04;;;;;;;;;;;;;;;28.80;42.41;94832.97;5134931;27;969;-59
2023/07/31 12:15:34;;;;;;;;;;;;;;;28.80;43.03;94824.72;5134996;27;1008;-58
2023/07/31 12:18:00;;;;;;;;;;;;;;;28.79;43.26;94817.56;5134988;27;1045;-58
2023/07/31 12:20:26;;;;;;;;;;;;;;;28.85;42.92;94809.28;5134895;27;1055;-59
2023/07/31 12:22:52;;;;;;;;;;;;;;;29.02;43.78;94809.72;5134722;27;1863;-60
2023/07/31 12:25:19;;;;;;;;;;;;;;;28.98;42.02;94806.72;5133887;27;3003;-60
2023/07/31 12:27:45;;;;;;;;;;;;;;;29.15;42.94;94803.59;5133967;27;2846;-60
2023/07/31 12:30:27;;;;;;;;;;;;;;;29.38;42.46;94801.22;5134476;27;1146;-58
2023/07/31 12:32:53;;;;;;;;;;;;;;;29.44;40.27;94805.56;5118496;27;2473;-61
2023/07/31 12:35:18;;;;;;;;;;;;;;;29.16;40.76;94798.94;5113895;28;1299;-60
2023/07/31 12:37:44;;;;;;;;;;;;;;;29.00;41.13;94796.22;5113974;28;1099;-58
2023/07/31 12:40:11;;;;;;;;;;;;;;;29.17;42.69;94790.38;5113918;28;1087;-58
2023/07/31 12:42:37;;;;;;;;;;;;;;;29.30;42.08;94799.91;5114174;28;1083;-57
2023/07/31 12:45:03;;;;;;;;;;;;;;;29.02;40.41;94809.72;5113743;28;1055;-59
2023/07/31 12:47:29;;;;;;;;;;;;;;;28.77;41.36;94799.72;5124195;28;2517;-59
2023/07/31 12:49:55;;;;;;;;;;;;;;;28.63;42.03;94799.53;5133642;28;1032;-59
2023/07/31 12:52:21;;;;;;;;;;;;;;;28.52;41.63;94784.19;5134739;28;1051;-58
2023/07/31 12:54:47;;;;;;;;;;;;;;;28.57;43.44;94781.38;5134253;28;1055;-59
2023/07/31 12:57:13;;;;;;;;;;;;;;;28.62;40.53;94781.38;5132934;28;2496;-59
2023/07/31 12:59:39;;;;;;;;;;;;;;;28.75;39.85;94777.16;5134175;28;986;-59
2023/07/31 13:02:05;;;;;;;;;;;;;;;28.76;40.64;94778.78;5134480;28;965;-59